Latest Weather Observations for Sheoaks

IDV60901

Issued at 9:11 pm EDT Sunday 16 December 2018 (issued every 10 minutes, with the page automatically refreshed every 10 minutes)

About weather observations | Map of Melbourne area stations | Latest observations for Melbourne area | Other Formats
Station Details ID: 087168 Name: SHEOAKS Lat: -37.91 Lon: 144.13 Height: 236.7 m
Data from the previous 72 hours. | See also: Recent months at Sheoaks
Date/Time
EDT
Temp
°C
App
Temp
°C
Dew
Point
°C
Rel
Hum
%
Delta-T
°C
Wind Press
QNH
hPa
Press
MSL
hPa
Rain since
9am
mm
Dir  Spd
km/h
Gust
km/h
Spd
kts
Gust
kts
16/09:00pm 16.4 16.0 12.9 80 2.0 E 7 9 4 5 1007.5 1006.9 0.0
16/08:30pm 17.4 16.8 13.5 78 2.2 SE 9 13 5 7 1007.7 1007.1 0.0
16/08:00pm 17.5 16.9 13.6 78 2.2 SE 9 13 5 7 1007.4 1006.8 0.0
16/07:30pm 18.9 18.0 13.7 72 3.0 SE 11 15 6 8 1006.9 1006.4 0.0
16/07:00pm 18.6 18.6 13.5 72 2.9 ESE 6 11 3 6 1006.6 1006.1 0.0
16/06:30pm 18.5 18.6 13.8 74 2.7 SSW 6 7 3 4 1006.5 1006.0 0.0
16/06:00pm 18.7 18.4 13.3 71 3.1 WSW 7 9 4 5 1006.2 1005.7 0.0
16/05:30pm 18.7 17.6 13.1 70 3.2 W 11 17 6 9 1005.7 1005.2 0.0
16/05:00pm 18.6 16.8 13.2 71 3.1 WSW 15 26 8 14 1005.7 1005.2 0.0
16/04:30pm 21.5 18.9 10.6 50 6.0 WNW 15 22 8 12 1005.4 1004.9 0.0
16/04:00pm 21.9 20.1 10.7 49 6.2 NW 11 20 6 11 1005.1 1004.6 0.0
16/03:30pm 21.1 17.9 11.2 53 5.5 NW 19 26 10 14 1005.2 1004.7 0.0
16/03:00pm 21.6 19.7 10.4 49 6.2 NW 11 20 6 11 1005.1 1004.6 0.0
16/02:30pm 20.1 17.4 11.6 58 4.8 NNW 17 26 9 14 1005.5 1005.0 0.0
16/02:00pm 19.8 18.5 12.6 63 4.1 WNW 11 22 6 12 1005.4 1004.9 0.0
16/01:30pm 17.2 13.8 11.2 68 3.3 WNW 20 26 11 14 1005.5 1005.0 0.0
16/01:00pm 21.8 19.6 9.3 45 6.8 NW 11 19 6 10 1005.3 1004.8 0.0
16/12:30pm 21.0 18.8 10.8 52 5.6 WNW 13 20 7 11 1005.4 1004.9 0.0
16/12:00pm 20.1 18.0 11.1 56 5.0 WNW 13 20 7 11 1005.5 1005.0 0.0
16/11:30am 19.5 17.2 10.5 56 4.9 NNW 13 20 7 11 1005.6 1005.1 0.0
16/11:00am 19.1 16.9 10.9 59 4.5 NNW 13 22 7 12 1005.5 1005.0 0.0
16/10:30am 19.3 16.0 10.8 58 4.7 NNW 19 24 10 13 1005.6 1005.1 0.0
16/10:00am 19.2 16.9 10.5 57 4.8 N 13 20 7 11 1005.5 1005.0 0.0
16/09:30am 19.0 16.5 11.1 60 4.4 N 15 20 8 11 1005.5 1005.0 0.0
16/09:00am 17.5 15.9 11.5 68 3.3 W 11 15 6 8 1005.7 1005.2 2.0
16/08:30am 16.6 16.0 11.7 73 2.7 W 6 9 3 5 1005.7 1005.2 2.0
16/08:00am 15.9 15.5 11.1 73 2.6 W 4 7 2 4 1005.4 1004.9 2.0
16/07:30am 15.6 15.5 10.8 73 2.6 W 2 4 1 2 1005.1 1004.6 2.0
16/07:00am 15.1 13.9 10.3 73 2.6 WNW 7 9 4 5 1004.9 1004.3 2.0
16/06:30am 15.0 13.0 10.2 73 2.5 W 11 17 6 9 1004.5 1003.9 2.0
16/06:00am 14.6 13.4 10.4 76 2.2 WSW 7 15 4 8 1004.4 1003.8 2.0
16/05:30am 14.7 13.8 10.5 76 2.2 NW 6 9 3 5 1003.8 1003.2 2.0
16/05:00am 14.3 13.2 10.1 76 2.2 SW 6 9 3 5 1003.4 1002.8 2.0
16/04:30am 14.2 13.5 10.2 77 2.1 N 4 7 2 4 1003.1 1002.5 2.0
16/04:00am 13.9 13.2 9.9 77 2.1 NNW 4 7 2 4 1003.1 1002.5 2.0
16/03:30am 14.1 13.3 9.5 74 2.4 NNW 4 6 2 3 1003.2 1002.6 2.0
16/03:00am 14.9 13.6 10.1 73 2.5 N 7 13 4 7 1003.5 1002.9 2.0
16/02:30am 15.9 13.8 9.6 66 3.3 NNE 11 17 6 9 1003.6 1003.0 2.0
16/02:00am 16.0 13.9 9.9 67 3.2 NE 11 13 6 7 1003.9 1003.3 2.0
16/01:30am 15.1 13.7 9.7 70 2.8 NE 7 11 4 6 1004.2 1003.6 2.0
16/01:00am 14.3 12.6 9.9 75 2.3 N 9 11 5 6 1004.2 1003.6 2.0
16/12:30am 13.9 12.6 10.1 78 2.0 N 7 9 4 5 1004.6 1004.0 2.0
16/12:00am 13.8 12.8 10.2 79 1.9 N 6 7 3 4 1004.6 1004.0 2.0
 
Date/Time
EDT
Temp
°C
App
Temp
°C
Dew
Point
°C
Rel
Hum
%
Delta-T
°C
Wind Press
QNH
hPa
Press
MSL
hPa
Rain since
9am
mm
Dir  Spd
km/h
Gust
km/h
Spd
kts
Gust
kts
15/11:30pm 13.6 12.5 10.6 82 1.6 N 7 11 4 6 1004.8 1004.2 2.0
15/11:00pm 13.8 12.6 10.2 79 1.9 N 7 9 4 5 1005.1 1004.6 2.0
15/10:30pm 15.7 14.4 10.0 69 3.0 NNE 7 9 4 5 1005.4 1004.9 2.0
15/10:00pm 16.7 15.0 9.9 64 3.6 NNE 9 11 5 6 1005.6 1005.1 2.0
15/09:30pm 17.4 16.3 9.8 61 4.0 N 6 7 3 4 1005.4 1004.9 2.0
15/09:00pm 18.4 16.7 9.7 57 4.7 NNE 9 13 5 7 1004.9 1004.3 2.0
15/08:30pm 19.2 17.4 9.4 53 5.2 N 9 19 5 10 1004.3 1003.7 2.0
15/08:00pm 20.3 16.9 9.2 49 6.0 N 17 28 9 15 1003.6 1003.0 2.0
15/07:30pm 20.9 16.5 8.9 46 6.4 N 22 33 12 18 1003.5 1002.9 2.0
15/07:00pm 21.6 15.6 8.5 43 7.0 N 30 41 16 22 1003.5 1002.9 2.0
15/06:30pm 22.9 17.4 7.4 37 8.2 NNE 26 37 14 20 1003.3 1002.7 2.0
15/06:00pm 23.3 18.9 7.4 36 8.4 NNE 20 32 11 17 1003.2 1002.6 2.0
15/05:30pm 23.6 18.8 8.8 39 8.0 NNE 24 39 13 21 1003.3 1002.7 2.0
15/05:00pm 23.8 18.8 8.2 37 8.4 NNE 24 37 13 20 1003.4 1002.8 2.0
15/04:30pm 23.0 19.1 8.7 40 7.7 NNE 19 28 10 15 1003.6 1003.0 2.0
15/04:00pm 22.0 18.9 10.2 47 6.5 NE 17 28 9 15 1003.5 1002.9 2.0
15/03:30pm 20.8 18.0 11.4 55 5.3 NNE 17 24 9 13 1003.8 1003.2 2.0
15/03:00pm 20.1 16.0 11.3 57 4.9 N 24 41 13 22 1003.9 1003.3 2.0
15/02:30pm 21.3 17.5 11.3 53 5.6 NNE 22 33 12 18 1004.4 1003.8 2.0
15/02:00pm 22.6 19.9 10.4 46 6.8 N 15 22 8 12 1004.3 1003.7 2.0
15/01:30pm 22.8 23.9 16.6 68 3.8 SE 6 9 3 5 1004.2 1003.6 2.0
15/01:00pm 22.4 24.3 16.7 70 3.5 SSE 2 9 1 5 1004.0 1003.4 2.0
15/12:30pm 22.8 24.0 17.3 71 3.4 SE 7 11 4 6 1004.6 1004.0 2.0
15/12:00pm 22.6 23.7 15.7 65 4.2 NNE 4 6 2 3 1004.8 1004.2 2.0
15/11:30am 21.3 24.5 20.5 95 0.5 NE 4 11 2 6 1004.8 1004.2 2.0
15/11:00am 19.2 22.2 19.2 100 0.0 S 2 4 1 2 1005.1 1004.6 2.0
15/10:30am 17.3 19.1 17.3 100 0.0 NNE 4 7 2 4 1005.4 1004.9 2.0
15/10:00am 15.8 15.3 15.8 100 0.0 NNE 13 22 7 12 1005.8 1005.3 2.0
15/09:30am 18.8 19.5 18.8 100 0.0 SE 13 19 7 10 1005.8 1005.3 0.0
15/09:00am 18.4 19.3 18.4 100 0.0 ESE 11 15 6 8 1006.0 1005.5 7.0
15/08:30am 18.0 19.1 18.0 100 0.0 ESE 9 17 5 9 1006.0 1005.5 7.0
15/08:00am 17.8 19.2 17.8 100 0.0 ESE 7 9 4 5 1005.7 1005.2 7.0
15/07:30am 17.4 18.2 17.4 100 0.0 SE 9 11 5 6 1005.3 1004.8 6.8
15/07:00am 17.1 18.4 17.1 100 0.0 ESE 6 6 3 3 1004.8 1004.2 6.8
15/06:30am 17.2 17.6 17.2 100 0.0 ESE 11 15 6 8 1005.1 1004.6 6.8
15/06:00am 17.6 19.1 17.6 100 0.0 SE 6 9 3 5 1005.1 1004.6 6.8
15/05:30am 17.6 18.9 17.6 100 0.0 SE 7 11 4 6 1005.0 1004.5 6.8
15/05:00am 17.8 18.1 17.8 100 0.0 SSE 13 22 7 12 1005.0 1004.5 6.8
15/04:30am 17.9 19.3 17.9 100 0.0 ESE 7 11 4 6 1005.2 1004.7 6.8
15/04:00am 17.9 19.5 17.9 100 0.0 SE 6 9 3 5 1005.2 1004.7 6.8
15/03:30am 17.8 19.8 17.8 100 0.0 S 4 6 2 3 1005.3 1004.8 6.8
15/03:00am 17.8 19.8 17.8 100 0.0 SSE 4 7 2 4 1005.4 1004.9 6.8
15/02:30am 17.7 19.6 17.7 100 0.0 SE 4 9 2 5 1005.8 1005.3 6.8
15/02:00am 17.5 19.7 17.5 100 0.0 S 2 6 1 3 1005.8 1005.3 6.8
15/01:30am 16.8 18.4 16.8 100 0.0 NNW 4 6 2 3 1006.1 1005.6 6.8
15/01:00am 17.5 20.1 17.5 100 0.0 CALM 0 0 0 0 1006.2 1005.7 6.8
15/12:30am 17.0 19.4 17.0 100 0.0 CALM 0 2 0 1 1006.4 1005.9 6.8
15/12:00am 16.8 17.8 16.8 100 0.0 NNW 7 13 4 7 1006.4 1005.9 6.8
 
Date/Time
EDT
Temp
°C
App
Temp
°C
Dew
Point
°C
Rel
Hum
%
Delta-T
°C
Wind Press
QNH
hPa
Press
MSL
hPa
Rain since
9am
mm
Dir  Spd
km/h
Gust
km/h
Spd
kts
Gust
kts
14/11:30pm 17.3 19.4 17.3 100 0.0 ESE 2 6 1 3 1006.4 1005.9 6.8
14/11:00pm 16.8 19.1 16.8 100 0.0 CALM 0 2 0 1 1006.5 1006.0 6.6
14/10:30pm 16.8 18.0 16.8 100 0.0 NNW 6 9 3 5 1006.5 1006.0 6.4
14/10:00pm 17.3 19.1 17.3 100 0.0 NW 4 4 2 2 1006.5 1006.0 6.0
14/09:30pm 17.5 19.0 17.5 100 0.0 NNW 6 7 3 4 1006.3 1005.8 5.8
14/09:00pm 17.6 19.5 17.6 100 0.0 ENE 4 7 2 4 1005.9 1005.4 5.8
14/08:30pm 17.4 18.8 17.4 100 0.0 SSE 6 9 3 5 1005.5 1005.0 5.8
14/08:00pm 17.2 18.5 17.2 100 0.0 SSE 6 9 3 5 1005.4 1004.9 5.8
14/07:30pm 17.1 17.1 17.1 100 0.0 SSE 13 20 7 11 1005.0 1004.5 5.8
14/07:00pm 17.1 17.0 16.9 99 0.1 SSE 13 22 7 12 1004.9 1004.3 4.2
14/06:30pm 17.4 16.9 16.9 97 0.3 SSE 15 24 8 13 1004.7 1004.1 1.8
14/06:00pm 18.0 17.6 17.2 95 0.5 SSE 15 20 8 11 1004.4 1003.8 1.0
14/05:30pm 18.3 17.3 16.6 90 1.0 SSE 17 26 9 14 1004.3 1003.7 0.2
14/05:00pm 20.4 18.8 16.0 76 2.7 SSE 19 24 10 13 1004.2 1003.6 0.2
14/04:30pm 21.8 19.8 14.9 65 4.1 SE 19 26 10 14 1004.0 1003.4 0.2
14/04:00pm 23.0 21.6 14.6 59 5.0 SSE 15 22 8 12 1004.0 1003.4 0.2
14/03:30pm 23.2 22.4 15.0 60 4.9 SSE 13 20 7 11 1004.2 1003.6 0.2
14/03:00pm 22.7 21.9 14.0 58 5.2 SSE 11 17 6 9 1004.2 1003.6 0.2
14/02:30pm 22.4 21.2 14.0 59 5.0 SE 13 20 7 11 1004.4 1003.8 0.2
14/02:00pm 22.7 21.3 14.5 60 4.9 ESE 15 28 8 15 1004.5 1003.9 0.2
14/01:30pm 21.7 21.4 14.4 63 4.3 SE 9 15 5 8 1004.4 1003.8 0.2
14/01:00pm 20.6 20.7 15.6 73 3.0 NE 9 15 5 8 1004.3 1003.7 0.0
14/12:30pm 17.8 16.1 13.5 76 2.5 NNE 15 17 8 9 1004.5 1003.9 0.0
14/12:00pm 17.3 16.5 13.0 76 2.4 SSW 9 11 5 6 1003.5 1002.9 0.0
14/11:30am 16.8 15.1 12.5 76 2.4 NE 13 17 7 9 1004.9 1004.3 0.0
14/11:00am 17.8 18.0 14.1 79 2.1 N 6 9 3 5 1005.1 1004.6 0.0
14/10:30am 17.0 16.8 14.6 86 1.4 N 9 17 5 9 1005.0 1004.5 0.0
14/10:00am 16.8 16.0 15.2 90 0.9 N 13 19 7 10 1004.8 1004.2 0.0
14/09:30am 16.9 17.8 16.1 95 0.5 NNW 6 9 3 5 1004.5 1003.9 0.0
14/09:00am 16.3 17.1 15.8 97 0.3 NNW 6 9 3 5 1004.3 1003.7 12.8
14/08:30am 16.4 16.8 16.2 99 0.1 N 9 13 5 7 1004.2 1003.6 12.8
14/08:00am 16.5 17.6 16.5 100 0.0 NNE 6 9 3 5 1003.8 1003.2 12.8
14/07:30am 15.7 16.8 15.7 100 0.0 ENE 4 6 2 3 1003.0 1002.4 12.8
14/07:00am 15.4 17.2 15.4 100 0.0 CALM 0 0 0 0 1001.7 1001.2 12.8
14/06:30am 15.9 16.7 15.9 100 0.0 ENE 6 6 3 3 1001.8 1001.3 12.8
14/06:00am 15.9 16.2 15.9 100 0.0 E 9 13 5 7 1001.9 1001.4 12.8
14/05:30am 16.4 16.8 16.4 100 0.0 E 9 15 5 8 1001.6 1001.1 12.8
14/05:00am 16.4 16.8 16.4 100 0.0 ESE 9 17 5 9 1000.8 1000.2 12.8
14/04:30am 16.3 16.7 16.3 100 0.0 E 9 15 5 8 1000.7 1000.1 12.8
14/04:00am 16.7 17.3 16.7 100 0.0 SE 9 17 5 9 1000.1 999.5 12.8
14/03:30am 16.6 17.5 16.6 100 0.0 SE 7 11 4 6 999.8 999.2 12.8
14/03:00am 16.6 17.1 16.6 100 0.0 SE 9 15 5 8 999.8 999.2 12.8
14/02:30am 16.6 17.5 16.6 100 0.0 SE 7 9 4 5 999.6 999.0 12.8
14/02:00am 16.7 17.6 16.7 100 0.0 SE 7 13 4 7 999.4 998.8 12.8
14/01:30am 16.5 17.6 16.5 100 0.0 SSE 6 7 3 4 998.9 998.3 12.8
14/01:00am 16.4 17.8 16.4 100 0.0 SE 4 6 2 3 998.7 998.1 12.6
14/12:30am 16.4 17.4 16.4 100 0.0 ESE 6 7 3 4 998.6 998.0 12.6
14/12:00am 16.2 17.4 16.0 99 0.1 S 4 6 2 3 998.4 997.8 12.6
 
Date/Time
EDT
Temp
°C
App
Temp
°C
Dew
Point
°C
Rel
Hum
%
Delta-T
°C
Wind Press
QNH
hPa
Press
MSL
hPa
Rain since
9am
mm
Dir  Spd
km/h
Gust
km/h
Spd
kts
Gust
kts
13/11:30pm 16.1 16.9 15.9 99 0.1 SSW 6 9 3 5 998.1 997.6 12.6
13/11:00pm 15.9 16.4 15.6 98 0.2 S 7 9 4 5 998.0 997.5 12.4
13/10:30pm 15.8 16.3 15.5 98 0.2 S 7 11 4 6 998.1 997.6 12.2
13/10:00pm 15.6 16.1 15.1 97 0.3 S 6 7 3 4 998.4 997.8 12.2
13/09:30pm 15.3 15.7 14.7 96 0.3 SW 6 9 3 5 998.1 997.6 12.2

Latest Capital City Observations: Canberra | Sydney | Melbourne | Brisbane | Adelaide | Perth | Hobart | Darwin

Other Formats:

Comma delimited format used in spreadsheet applications
http://www.bom.gov.au/fwo/IDV60901/IDV60901.94863.axf

JavaScript Object Notation format (JSON) in row-major order
http://www.bom.gov.au/fwo/IDV60901/IDV60901.94863.json